sensor_id;sensor_type;location;lat;lon;timestamp;temperature;humidity
39325;DHT22;25037;49.488;9.900;2022-12-05T00:01:31;7.20;76.70
39325;DHT22;25037;49.488;9.900;2022-12-05T00:04:00;7.20;76.70
39325;DHT22;25037;49.488;9.900;2022-12-05T00:06:28;7.20;76.70
39325;DHT22;25037;49.488;9.900;2022-12-05T00:08:54;7.20;76.60
39325;DHT22;25037;49.488;9.900;2022-12-05T00:11:26;7.20;76.60
39325;DHT22;25037;49.488;9.900;2022-12-05T00:13:53;7.20;76.60
39325;DHT22;25037;49.488;9.900;2022-12-05T00:16:21;7.20;76.60
39325;DHT22;25037;49.488;9.900;2022-12-05T00:18:47;7.20;76.60
39325;DHT22;25037;49.488;9.900;2022-12-05T00:21:19;7.10;76.70
39325;DHT22;25037;49.488;9.900;2022-12-05T00:23:45;7.10;76.70
39325;DHT22;25037;49.488;9.900;2022-12-05T00:26:11;7.10;76.70
39325;DHT22;25037;49.488;9.900;2022-12-05T00:28:38;7.10;76.70
39325;DHT22;25037;49.488;9.900;2022-12-05T00:31:06;7.10;76.70
39325;DHT22;25037;49.488;9.900;2022-12-05T00:33:32;7.10;76.80
39325;DHT22;25037;49.488;9.900;2022-12-05T00:36:07;7.10;76.70
39325;DHT22;25037;49.488;9.900;2022-12-05T00:38:34;7.10;76.80
39325;DHT22;25037;49.488;9.900;2022-12-05T00:41:03;7.10;76.70
39325;DHT22;25037;49.488;9.900;2022-12-05T00:43:30;7.10;76.80
39325;DHT22;25037;49.488;9.900;2022-12-05T00:45:55;7.10;76.70
39325;DHT22;25037;49.488;9.900;2022-12-05T00:48:21;7.10;76.70
39325;DHT22;25037;49.488;9.900;2022-12-05T00:50:46;7.10;76.70
39325;DHT22;25037;49.488;9.900;2022-12-05T00:53:12;7.10;76.70
39325;DHT22;25037;49.488;9.900;2022-12-05T00:55:37;7.10;76.80
39325;DHT22;25037;49.488;9.900;2022-12-05T00:58:03;7.10;76.80
39325;DHT22;25037;49.488;9.900;2022-12-05T01:00:29;7.10;76.80
39325;DHT22;25037;49.488;9.900;2022-12-05T01:02:54;7.10;76.80
39325;DHT22;25037;49.488;9.900;2022-12-05T01:05:20;7.10;76.80
39325;DHT22;25037;49.488;9.900;2022-12-05T01:07:46;7.10;76.80
39325;DHT22;25037;49.488;9.900;2022-12-05T01:10:11;7.10;76.80
39325;DHT22;25037;49.488;9.900;2022-12-05T01:12:37;7.10;76.80
39325;DHT22;25037;49.488;9.900;2022-12-05T01:15:03;7.10;76.80
39325;DHT22;25037;49.488;9.900;2022-12-05T01:17:28;7.10;76.80
39325;DHT22;25037;49.488;9.900;2022-12-05T01:19:54;7.10;76.80
39325;DHT22;25037;49.488;9.900;2022-12-05T01:22:19;7.10;76.80
39325;DHT22;25037;49.488;9.900;2022-12-05T01:24:45;7.10;76.70
39325;DHT22;25037;49.488;9.900;2022-12-05T01:27:10;7.00;76.70
39325;DHT22;25037;49.488;9.900;2022-12-05T01:29:36;7.00;76.70
39325;DHT22;25037;49.488;9.900;2022-12-05T01:32:02;7.10;76.70
39325;DHT22;25037;49.488;9.900;2022-12-05T01:34:28;7.00;76.70
39325;DHT22;25037;49.488;9.900;2022-12-05T01:36:53;7.00;76.70
39325;DHT22;25037;49.488;9.900;2022-12-05T01:39:19;7.00;76.80
39325;DHT22;25037;49.488;9.900;2022-12-05T01:41:47;7.00;76.70
39325;DHT22;25037;49.488;9.900;2022-12-05T01:46:43;6.90;76.80
39325;DHT22;25037;49.488;9.900;2022-12-05T01:52:02;6.90;76.80
39325;DHT22;25037;49.488;9.900;2022-12-05T01:54:29;6.90;76.80
39325;DHT22;25037;49.488;9.900;2022-12-05T01:57:01;6.90;76.80
39325;DHT22;25037;49.488;9.900;2022-12-05T01:59:30;6.90;76.80
39325;DHT22;25037;49.488;9.900;2022-12-05T02:01:57;6.90;76.80
39325;DHT22;25037;49.488;9.900;2022-12-05T02:04:23;6.90;76.70
39325;DHT22;25037;49.488;9.900;2022-12-05T02:06:49;6.90;76.70
39325;DHT22;25037;49.488;9.900;2022-12-05T02:09:14;6.90;76.70
39325;DHT22;25037;49.488;9.900;2022-12-05T02:11:53;6.90;76.70
39325;DHT22;25037;49.488;9.900;2022-12-05T02:14:24;6.90;76.70
39325;DHT22;25037;49.488;9.900;2022-12-05T02:20:03;6.90;76.70
39325;DHT22;25037;49.488;9.900;2022-12-05T02:28:40;6.90;76.70
39325;DHT22;25037;49.488;9.900;2022-12-05T02:31:30;6.90;76.60
39325;DHT22;25037;49.488;9.900;2022-12-05T02:34:26;6.80;76.70
39325;DHT22;25037;49.488;9.900;2022-12-05T02:37:10;6.80;76.60
39325;DHT22;25037;49.488;9.900;2022-12-05T02:39:57;6.80;76.60
39325;DHT22;25037;49.488;9.900;2022-12-05T02:42:28;6.80;76.50
39325;DHT22;25037;49.488;9.900;2022-12-05T02:45:08;6.70;76.50
39325;DHT22;25037;49.488;9.900;2022-12-05T02:47:39;6.80;76.50
39325;DHT22;25037;49.488;9.900;2022-12-05T02:50:08;6.80;76.50
39325;DHT22;25037;49.488;9.900;2022-12-05T02:52:35;6.80;76.60
39325;DHT22;25037;49.488;9.900;2022-12-05T02:55:01;6.80;76.60
39325;DHT22;25037;49.488;9.900;2022-12-05T02:57:27;6.80;76.60
39325;DHT22;25037;49.488;9.900;2022-12-05T02:59:53;6.80;76.60
39325;DHT22;25037;49.488;9.900;2022-12-05T03:02:25;6.80;76.60
39325;DHT22;25037;49.488;9.900;2022-12-05T03:04:51;6.80;76.60
39325;DHT22;25037;49.488;9.900;2022-12-05T03:07:18;6.80;76.60
39325;DHT22;25037;49.488;9.900;2022-12-05T03:09:58;6.80;76.50
39325;DHT22;25037;49.488;9.900;2022-12-05T03:12:28;6.80;76.60
39325;DHT22;25037;49.488;9.900;2022-12-05T03:17:42;6.70;76.50
39325;DHT22;25037;49.488;9.900;2022-12-05T03:20:18;6.70;76.50
39325;DHT22;25037;49.488;9.900;2022-12-05T03:22:56;6.70;76.60
39325;DHT22;25037;49.488;9.900;2022-12-05T03:25:33;6.70;76.50
39325;DHT22;25037;49.488;9.900;2022-12-05T03:28:09;6.70;76.50
39325;DHT22;25037;49.488;9.900;2022-12-05T03:30:39;6.70;76.50
39325;DHT22;25037;49.488;9.900;2022-12-05T03:33:10;6.70;76.50
39325;DHT22;25037;49.488;9.900;2022-12-05T03:38:24;6.70;76.50
39325;DHT22;25037;49.488;9.900;2022-12-05T03:41:04;6.70;76.50
39325;DHT22;25037;49.488;9.900;2022-12-05T03:46:31;6.70;76.50
39325;DHT22;25037;49.488;9.900;2022-12-05T03:49:10;6.70;76.50
39325;DHT22;25037;49.488;9.900;2022-12-05T03:51:45;6.60;76.60
39325;DHT22;25037;49.488;9.900;2022-12-05T03:54:43;6.60;76.50
39325;DHT22;25037;49.488;9.900;2022-12-05T03:57:18;6.50;76.60
39325;DHT22;25037;49.488;9.900;2022-12-05T03:59:46;6.50;76.60
39325;DHT22;25037;49.488;9.900;2022-12-05T04:02:43;6.50;76.50
39325;DHT22;25037;49.488;9.900;2022-12-05T04:05:19;6.50;76.40
39325;DHT22;25037;49.488;9.900;2022-12-05T04:07:55;6.50;76.50
39325;DHT22;25037;49.488;9.900;2022-12-05T04:10:26;6.50;76.40
39325;DHT22;25037;49.488;9.900;2022-12-05T04:12:54;6.50;76.40
39325;DHT22;25037;49.488;9.900;2022-12-05T04:15:30;6.50;76.40
39325;DHT22;25037;49.488;9.900;2022-12-05T04:18:19;6.50;76.30
39325;DHT22;25037;49.488;9.900;2022-12-05T04:20:47;6.50;76.30
39325;DHT22;25037;49.488;9.900;2022-12-05T04:23:32;6.50;76.20
39325;DHT22;25037;49.488;9.900;2022-12-05T04:26:22;6.50;76.20
39325;DHT22;25037;49.488;9.900;2022-12-05T04:28:57;6.50;76.10
39325;DHT22;25037;49.488;9.900;2022-12-05T04:31:34;6.50;76.10
39325;DHT22;25037;49.488;9.900;2022-12-05T04:34:06;6.50;76.10
39325;DHT22;25037;49.488;9.900;2022-12-05T04:36:36;6.50;76.00
39325;DHT22;25037;49.488;9.900;2022-12-05T04:41:55;6.50;76.00
39325;DHT22;25037;49.488;9.900;2022-12-05T04:44:31;6.50;75.90
39325;DHT22;25037;49.488;9.900;2022-12-05T04:47:01;6.50;75.90
39325;DHT22;25037;49.488;9.900;2022-12-05T04:49:29;6.60;75.80
39325;DHT22;25037;49.488;9.900;2022-12-05T04:51:59;6.60;75.80
39325;DHT22;25037;49.488;9.900;2022-12-05T04:54:33;6.50;75.80
39325;DHT22;25037;49.488;9.900;2022-12-05T04:57:09;6.60;75.70
39325;DHT22;25037;49.488;9.900;2022-12-05T04:59:36;6.60;75.80
39325;DHT22;25037;49.488;9.900;2022-12-05T05:02:06;6.60;75.70
39325;DHT22;25037;49.488;9.900;2022-12-05T05:04:39;6.50;75.70
39325;DHT22;25037;49.488;9.900;2022-12-05T05:07:08;6.50;75.70
39325;DHT22;25037;49.488;9.900;2022-12-05T05:09:34;6.60;75.70
39325;DHT22;25037;49.488;9.900;2022-12-05T05:12:00;6.60;75.70
39325;DHT22;25037;49.488;9.900;2022-12-05T05:14:26;6.60;75.70
39325;DHT22;25037;49.488;9.900;2022-12-05T05:16:52;6.60;75.60
39325;DHT22;25037;49.488;9.900;2022-12-05T05:19:17;6.60;75.50
39325;DHT22;25037;49.488;9.900;2022-12-05T05:21:43;6.60;75.60
39325;DHT22;25037;49.488;9.900;2022-12-05T05:24:10;6.60;75.50
39325;DHT22;25037;49.488;9.900;2022-12-05T05:26:38;6.60;75.50
39325;DHT22;25037;49.488;9.900;2022-12-05T05:29:05;6.60;75.50
39325;DHT22;25037;49.488;9.900;2022-12-05T05:31:31;6.60;75.60
39325;DHT22;25037;49.488;9.900;2022-12-05T05:33:57;6.60;75.60
39325;DHT22;25037;49.488;9.900;2022-12-05T05:36:25;6.60;75.60
39325;DHT22;25037;49.488;9.900;2022-12-05T05:38:59;6.60;75.60
39325;DHT22;25037;49.488;9.900;2022-12-05T05:41:30;6.60;75.50
39325;DHT22;25037;49.488;9.900;2022-12-05T05:43:56;6.60;75.50
39325;DHT22;25037;49.488;9.900;2022-12-05T05:46:24;6.60;75.50
39325;DHT22;25037;49.488;9.900;2022-12-05T05:48:51;6.60;75.50
39325;DHT22;25037;49.488;9.900;2022-12-05T05:51:17;6.50;75.50
39325;DHT22;25037;49.488;9.900;2022-12-05T05:53:43;6.50;75.50
39325;DHT22;25037;49.488;9.900;2022-12-05T05:56:12;6.50;75.50
39325;DHT22;25037;49.488;9.900;2022-12-05T05:58:38;6.50;75.50
39325;DHT22;25037;49.488;9.900;2022-12-05T06:01:13;6.50;75.50
39325;DHT22;25037;49.488;9.900;2022-12-05T06:03:39;6.50;75.50
39325;DHT22;25037;49.488;9.900;2022-12-05T06:06:07;6.50;75.50
39325;DHT22;25037;49.488;9.900;2022-12-05T06:08:36;6.50;75.40
39325;DHT22;25037;49.488;9.900;2022-12-05T06:11:14;6.50;75.40
39325;DHT22;25037;49.488;9.900;2022-12-05T06:13:40;6.50;75.40
39325;DHT22;25037;49.488;9.900;2022-12-05T06:16:11;6.50;75.50
39325;DHT22;25037;49.488;9.900;2022-12-05T06:18:37;6.50;75.50
39325;DHT22;25037;49.488;9.900;2022-12-05T06:21:03;6.50;75.40
39325;DHT22;25037;49.488;9.900;2022-12-05T06:23:33;6.50;75.50
39325;DHT22;25037;49.488;9.900;2022-12-05T06:25:58;6.50;75.40
39325;DHT22;25037;49.488;9.900;2022-12-05T06:28:25;6.50;75.40
39325;DHT22;25037;49.488;9.900;2022-12-05T06:30:51;6.50;75.40
39325;DHT22;25037;49.488;9.900;2022-12-05T06:33:17;6.50;75.40
39325;DHT22;25037;49.488;9.900;2022-12-05T06:35:43;6.50;75.40
39325;DHT22;25037;49.488;9.900;2022-12-05T06:38:09;6.50;75.40
39325;DHT22;25037;49.488;9.900;2022-12-05T06:40:39;6.50;75.40
39325;DHT22;25037;49.488;9.900;2022-12-05T06:43:05;6.50;75.40
39325;DHT22;25037;49.488;9.900;2022-12-05T06:45:31;6.50;75.40
39325;DHT22;25037;49.488;9.900;2022-12-05T06:47:57;6.50;75.40
39325;DHT22;25037;49.488;9.900;2022-12-05T06:50:22;6.50;75.50
39325;DHT22;25037;49.488;9.900;2022-12-05T06:52:49;6.50;75.50
39325;DHT22;25037;49.488;9.900;2022-12-05T06:55:15;6.50;75.40
39325;DHT22;25037;49.488;9.900;2022-12-05T06:57:40;6.60;75.40
39325;DHT22;25037;49.488;9.900;2022-12-05T07:00:06;6.50;75.40
39325;DHT22;25037;49.488;9.900;2022-12-05T07:02:51;6.60;75.40
39325;DHT22;25037;49.488;9.900;2022-12-05T07:05:17;6.50;75.30
39325;DHT22;25037;49.488;9.900;2022-12-05T07:07:43;6.60;75.30
39325;DHT22;25037;49.488;9.900;2022-12-05T07:10:08;6.50;75.20
39325;DHT22;25037;49.488;9.900;2022-12-05T07:12:34;6.60;75.20
39325;DHT22;25037;49.488;9.900;2022-12-05T07:14:59;6.60;75.20
39325;DHT22;25037;49.488;9.900;2022-12-05T07:17:25;6.60;75.10
39325;DHT22;25037;49.488;9.900;2022-12-05T07:19:52;6.60;75.10
39325;DHT22;25037;49.488;9.900;2022-12-05T07:22:19;6.70;75.00
39325;DHT22;25037;49.488;9.900;2022-12-05T07:24:45;6.70;75.00
39325;DHT22;25037;49.488;9.900;2022-12-05T07:27:12;6.70;75.00
39325;DHT22;25037;49.488;9.900;2022-12-05T07:29:37;6.70;74.90
39325;DHT22;25037;49.488;9.900;2022-12-05T07:32:03;6.70;74.90
39325;DHT22;25037;49.488;9.900;2022-12-05T07:34:29;6.70;74.90
39325;DHT22;25037;49.488;9.900;2022-12-05T07:36:55;6.70;74.90
39325;DHT22;25037;49.488;9.900;2022-12-05T07:39:20;6.70;74.80
39325;DHT22;25037;49.488;9.900;2022-12-05T07:41:46;6.70;74.70
39325;DHT22;25037;49.488;9.900;2022-12-05T07:44:12;6.70;74.60
39325;DHT22;25037;49.488;9.900;2022-12-05T07:46:38;6.80;74.60
39325;DHT22;25037;49.488;9.900;2022-12-05T07:49:04;6.80;74.60
39325;DHT22;25037;49.488;9.900;2022-12-05T07:51:30;6.80;74.50
39325;DHT22;25037;49.488;9.900;2022-12-05T07:53:57;6.80;74.40
39325;DHT22;25037;49.488;9.900;2022-12-05T07:56:23;6.90;74.30
39325;DHT22;25037;49.488;9.900;2022-12-05T07:58:49;6.90;74.30
39325;DHT22;25037;49.488;9.900;2022-12-05T08:01:21;7.00;74.20
39325;DHT22;25037;49.488;9.900;2022-12-05T08:03:47;7.00;74.10
39325;DHT22;25037;49.488;9.900;2022-12-05T08:06:22;7.10;74.00
39325;DHT22;25037;49.488;9.900;2022-12-05T08:08:48;7.10;73.90
39325;DHT22;25037;49.488;9.900;2022-12-05T08:11:20;7.20;73.90
39325;DHT22;25037;49.488;9.900;2022-12-05T08:13:46;7.30;73.70
39325;DHT22;25037;49.488;9.900;2022-12-05T08:16:13;7.30;73.60
39325;DHT22;25037;49.488;9.900;2022-12-05T08:18:40;7.40;73.60
39325;DHT22;25037;49.488;9.900;2022-12-05T08:21:11;7.50;73.50
39325;DHT22;25037;49.488;9.900;2022-12-05T08:23:38;7.50;73.40
39325;DHT22;25037;49.488;9.900;2022-12-05T08:26:09;7.50;73.40
39325;DHT22;25037;49.488;9.900;2022-12-05T08:28:35;7.50;73.30
39325;DHT22;25037;49.488;9.900;2022-12-05T08:31:12;7.40;73.40
39325;DHT22;25037;49.488;9.900;2022-12-05T08:33:39;7.40;73.40
39325;DHT22;25037;49.488;9.900;2022-12-05T08:36:06;7.30;73.50
39325;DHT22;25037;49.488;9.900;2022-12-05T08:38:33;7.40;73.60
39325;DHT22;25037;49.488;9.900;2022-12-05T08:41:08;7.30;73.60
39325;DHT22;25037;49.488;9.900;2022-12-05T08:43:34;7.40;73.80
39325;DHT22;25037;49.488;9.900;2022-12-05T08:46:00;7.40;73.90
39325;DHT22;25037;49.488;9.900;2022-12-05T08:48:28;7.30;74.00
39325;DHT22;25037;49.488;9.900;2022-12-05T08:50:54;7.40;73.90
39325;DHT22;25037;49.488;9.900;2022-12-05T08:53:20;7.40;73.90
39325;DHT22;25037;49.488;9.900;2022-12-05T08:55:45;7.40;74.00
39325;DHT22;25037;49.488;9.900;2022-12-05T08:58:11;7.40;74.00
39325;DHT22;25037;49.488;9.900;2022-12-05T09:00:37;7.50;74.00
39325;DHT22;25037;49.488;9.900;2022-12-05T09:03:03;7.50;74.00
39325;DHT22;25037;49.488;9.900;2022-12-05T09:05:29;7.50;74.00
39325;DHT22;25037;49.488;9.900;2022-12-05T09:07:55;7.50;74.10
39325;DHT22;25037;49.488;9.900;2022-12-05T09:10:20;7.40;74.10
39325;DHT22;25037;49.488;9.900;2022-12-05T09:12:46;7.40;74.20
39325;DHT22;25037;49.488;9.900;2022-12-05T09:15:12;7.40;74.30
39325;DHT22;25037;49.488;9.900;2022-12-05T09:17:38;7.40;74.30
39325;DHT22;25037;49.488;9.900;2022-12-05T09:20:05;7.40;74.40
39325;DHT22;25037;49.488;9.900;2022-12-05T09:22:31;7.30;74.50
39325;DHT22;25037;49.488;9.900;2022-12-05T09:24:57;7.30;74.60
39325;DHT22;25037;49.488;9.900;2022-12-05T09:27:22;7.30;74.70
39325;DHT22;25037;49.488;9.900;2022-12-05T09:29:48;7.30;74.70
39325;DHT22;25037;49.488;9.900;2022-12-05T09:32:14;7.30;74.70
39325;DHT22;25037;49.488;9.900;2022-12-05T09:34:39;7.30;74.70
39325;DHT22;25037;49.488;9.900;2022-12-05T09:37:06;7.30;74.70
39325;DHT22;25037;49.488;9.900;2022-12-05T09:39:32;7.30;74.70
39325;DHT22;25037;49.488;9.900;2022-12-05T09:42:27;7.40;74.60
39325;DHT22;25037;49.488;9.900;2022-12-05T09:45:42;7.50;74.60
39325;DHT22;25037;49.488;9.900;2022-12-05T09:48:14;7.50;74.50
39325;DHT22;25037;49.488;9.900;2022-12-05T09:51:00;7.50;74.50
39325;DHT22;25037;49.488;9.900;2022-12-05T09:53:39;7.60;74.40
39325;DHT22;25037;49.488;9.900;2022-12-05T10:06:29;7.80;74.30
39325;DHT22;25037;49.488;9.900;2022-12-05T10:16:55;8.00;74.00
39325;DHT22;25037;49.488;9.900;2022-12-05T10:19:33;8.00;74.00
39325;DHT22;25037;49.488;9.900;2022-12-05T10:24:36;8.00;73.90
39325;DHT22;25037;49.488;9.900;2022-12-05T10:27:06;8.00;73.70
39325;DHT22;25037;49.488;9.900;2022-12-05T10:29:37;8.00;73.70
39325;DHT22;25037;49.488;9.900;2022-12-05T10:32:23;8.00;73.70
39325;DHT22;25037;49.488;9.900;2022-12-05T10:34:50;8.00;73.70
39325;DHT22;25037;49.488;9.900;2022-12-05T10:37:21;8.00;73.70
39325;DHT22;25037;49.488;9.900;2022-12-05T10:39:48;8.00;73.60
39325;DHT22;25037;49.488;9.900;2022-12-05T10:42:32;8.10;73.60
39325;DHT22;25037;49.488;9.900;2022-12-05T10:45:02;8.10;73.40
39325;DHT22;25037;49.488;9.900;2022-12-05T10:47:29;8.10;73.50
39325;DHT22;25037;49.488;9.900;2022-12-05T10:49:58;8.00;73.50
39325;DHT22;25037;49.488;9.900;2022-12-05T10:52:24;8.10;73.40
39325;DHT22;25037;49.488;9.900;2022-12-05T10:55:01;8.10;73.40
39325;DHT22;25037;49.488;9.900;2022-12-05T10:57:28;8.20;73.30
39325;DHT22;25037;49.488;9.900;2022-12-05T10:59:57;8.20;73.30
39325;DHT22;25037;49.488;9.900;2022-12-05T11:02:28;8.20;73.20
39325;DHT22;25037;49.488;9.900;2022-12-05T11:04:55;8.20;73.10
39325;DHT22;25037;49.488;9.900;2022-12-05T11:07:30;8.20;73.10
39325;DHT22;25037;49.488;9.900;2022-12-05T11:10:01;8.20;73.00
39325;DHT22;25037;49.488;9.900;2022-12-05T11:15:23;8.30;72.80
39325;DHT22;25037;49.488;9.900;2022-12-05T11:17:55;8.30;72.60
39325;DHT22;25037;49.488;9.900;2022-12-05T11:22:49;8.30;72.80
39325;DHT22;25037;49.488;9.900;2022-12-05T11:27:53;8.50;72.60
39325;DHT22;25037;49.488;9.900;2022-12-05T11:30:22;8.40;72.60
39325;DHT22;25037;49.488;9.900;2022-12-05T11:32:48;8.50;72.60
39325;DHT22;25037;49.488;9.900;2022-12-05T11:35:24;8.60;72.60
39325;DHT22;25037;49.488;9.900;2022-12-05T11:38:01;8.60;72.50
39325;DHT22;25037;49.488;9.900;2022-12-05T11:43:37;8.70;72.40
39325;DHT22;25037;49.488;9.900;2022-12-05T11:52:20;8.90;72.10
39325;DHT22;25037;49.488;9.900;2022-12-05T11:58:23;9.00;72.10
39325;DHT22;25037;49.488;9.900;2022-12-05T12:15:22;8.80;72.30
39325;DHT22;25037;49.488;9.900;2022-12-05T12:18:00;8.80;72.10
39325;DHT22;25037;49.488;9.900;2022-12-05T12:23:26;8.70;72.30
39325;DHT22;25037;49.488;9.900;2022-12-05T12:26:10;8.70;72.20
39325;DHT22;25037;49.488;9.900;2022-12-05T12:36:54;8.50;72.50
39325;DHT22;25037;49.488;9.900;2022-12-05T12:50:26;8.40;72.50
39325;DHT22;25037;49.488;9.900;2022-12-05T12:55:40;8.30;72.60
39325;DHT22;25037;49.488;9.900;2022-12-05T12:58:26;8.30;72.70
39325;DHT22;25037;49.488;9.900;2022-12-05T13:03:43;8.20;72.80
39325;DHT22;25037;49.488;9.900;2022-12-05T13:06:21;8.20;72.80
39325;DHT22;25037;49.488;9.900;2022-12-05T13:08:53;8.20;72.80
39325;DHT22;25037;49.488;9.900;2022-12-05T13:11:21;8.20;72.90
39325;DHT22;25037;49.488;9.900;2022-12-05T13:13:52;8.20;72.90
39325;DHT22;25037;49.488;9.900;2022-12-05T13:16:34;8.10;73.00
39325;DHT22;25037;49.488;9.900;2022-12-05T13:19:02;8.10;73.00
39325;DHT22;25037;49.488;9.900;2022-12-05T13:21:30;8.10;73.10
39325;DHT22;25037;49.488;9.900;2022-12-05T13:23:57;8.10;73.20
39325;DHT22;25037;49.488;9.900;2022-12-05T13:26:30;8.10;73.30
39325;DHT22;25037;49.488;9.900;2022-12-05T13:28:59;8.10;73.30
39325;DHT22;25037;49.488;9.900;2022-12-05T13:31:41;8.10;73.40
39325;DHT22;25037;49.488;9.900;2022-12-05T13:34:36;8.10;73.40
39325;DHT22;25037;49.488;9.900;2022-12-05T13:37:28;8.20;73.40
39325;DHT22;25037;49.488;9.900;2022-12-05T13:40:30;8.10;73.40
39325;DHT22;25037;49.488;9.900;2022-12-05T13:43:21;8.10;73.50
39325;DHT22;25037;49.488;9.900;2022-12-05T13:46:04;8.00;73.60
39325;DHT22;25037;49.488;9.900;2022-12-05T13:48:34;8.00;73.70
39325;DHT22;25037;49.488;9.900;2022-12-05T13:51:05;8.00;73.80
39325;DHT22;25037;49.488;9.900;2022-12-05T13:53:44;7.90;73.80
39325;DHT22;25037;49.488;9.900;2022-12-05T13:58:52;7.90;73.90
39325;DHT22;25037;49.488;9.900;2022-12-05T14:04:02;7.90;74.20
39325;DHT22;25037;49.488;9.900;2022-12-05T14:09:03;7.90;74.20
39325;DHT22;25037;49.488;9.900;2022-12-05T14:11:29;7.90;74.20
39325;DHT22;25037;49.488;9.900;2022-12-05T14:13:55;7.90;74.30
39325;DHT22;25037;49.488;9.900;2022-12-05T14:21:41;7.80;74.50
39325;DHT22;25037;49.488;9.900;2022-12-05T14:25:11;7.80;74.70
39325;DHT22;25037;49.488;9.900;2022-12-05T14:30:04;7.80;74.70
39325;DHT22;25037;49.488;9.900;2022-12-05T14:32:37;7.80;74.70
39325;DHT22;25037;49.488;9.900;2022-12-05T14:35:28;7.80;74.70
39325;DHT22;25037;49.488;9.900;2022-12-05T14:38:01;7.80;74.80
39325;DHT22;25037;49.488;9.900;2022-12-05T14:40:47;7.70;74.80
39325;DHT22;25037;49.488;9.900;2022-12-05T14:43:21;7.70;74.80
39325;DHT22;25037;49.488;9.900;2022-12-05T14:50:50;7.60;74.90
39325;DHT22;25037;49.488;9.900;2022-12-05T14:56:03;7.60;75.00
39325;DHT22;25037;49.488;9.900;2022-12-05T15:01:16;7.50;75.20
39325;DHT22;25037;49.488;9.900;2022-12-05T15:04:14;7.50;75.30
39325;DHT22;25037;49.488;9.900;2022-12-05T15:07:07;7.50;75.40
39325;DHT22;25037;49.488;9.900;2022-12-05T15:10:02;7.50;75.40
39325;DHT22;25037;49.488;9.900;2022-12-05T15:12:40;7.40;75.50
39325;DHT22;25037;49.488;9.900;2022-12-05T15:15:36;7.40;75.50
39325;DHT22;25037;49.488;9.900;2022-12-05T15:18:34;7.40;75.50
39325;DHT22;25037;49.488;9.900;2022-12-05T15:21:06;7.50;75.50
39325;DHT22;25037;49.488;9.900;2022-12-05T15:23:42;7.40;75.50
39325;DHT22;25037;49.488;9.900;2022-12-05T15:31:28;7.40;75.50
39325;DHT22;25037;49.488;9.900;2022-12-05T15:33:57;7.40;75.50
39325;DHT22;25037;49.488;9.900;2022-12-05T15:36:27;7.50;75.60
39325;DHT22;25037;49.488;9.900;2022-12-05T15:38:55;7.50;75.50
39325;DHT22;25037;49.488;9.900;2022-12-05T15:41:21;7.50;75.40
39325;DHT22;25037;49.488;9.900;2022-12-05T15:43:56;7.50;75.40
39325;DHT22;25037;49.488;9.900;2022-12-05T15:46:23;7.50;75.40
39325;DHT22;25037;49.488;9.900;2022-12-05T15:48:50;7.50;75.30
39325;DHT22;25037;49.488;9.900;2022-12-05T15:51:17;7.50;75.30
39325;DHT22;25037;49.488;9.900;2022-12-05T15:54:10;7.50;75.30
39325;DHT22;25037;49.488;9.900;2022-12-05T15:56:43;7.40;75.30
39325;DHT22;25037;49.488;9.900;2022-12-05T15:59:12;7.40;75.30
39325;DHT22;25037;49.488;9.900;2022-12-05T16:01:44;7.40;75.40
39325;DHT22;25037;49.488;9.900;2022-12-05T16:04:23;7.30;75.40
39325;DHT22;25037;49.488;9.900;2022-12-05T16:06:54;7.30;75.50
39325;DHT22;25037;49.488;9.900;2022-12-05T16:09:23;7.30;75.60
39325;DHT22;25037;49.488;9.900;2022-12-05T16:12:02;7.20;75.60
39325;DHT22;25037;49.488;9.900;2022-12-05T16:14:32;7.20;75.70
39325;DHT22;25037;49.488;9.900;2022-12-05T16:17:01;7.20;75.70
39325;DHT22;25037;49.488;9.900;2022-12-05T16:19:29;7.20;75.80
39325;DHT22;25037;49.488;9.900;2022-12-05T16:25:13;7.20;75.90
39325;DHT22;25037;49.488;9.900;2022-12-05T16:27:39;7.20;75.90
39325;DHT22;25037;49.488;9.900;2022-12-05T16:32:41;7.20;76.00
39325;DHT22;25037;49.488;9.900;2022-12-05T16:35:36;7.10;76.10
39325;DHT22;25037;49.488;9.900;2022-12-05T16:43:18;7.20;75.90
39325;DHT22;25037;49.488;9.900;2022-12-05T16:45:48;7.30;75.80
39325;DHT22;25037;49.488;9.900;2022-12-05T16:48:18;7.30;75.70
39325;DHT22;25037;49.488;9.900;2022-12-05T16:50:45;7.30;75.60
39325;DHT22;25037;49.488;9.900;2022-12-05T16:53:19;7.30;75.60
39325;DHT22;25037;49.488;9.900;2022-12-05T16:55:44;7.30;75.60
39325;DHT22;25037;49.488;9.900;2022-12-05T16:58:22;7.30;75.60
39325;DHT22;25037;49.488;9.900;2022-12-05T17:00:49;7.20;75.70
39325;DHT22;25037;49.488;9.900;2022-12-05T17:03:15;7.20;75.70
39325;DHT22;25037;49.488;9.900;2022-12-05T17:05:41;7.20;75.70
39325;DHT22;25037;49.488;9.900;2022-12-05T17:08:07;7.20;75.70
39325;DHT22;25037;49.488;9.900;2022-12-05T17:10:33;7.20;75.70
39325;DHT22;25037;49.488;9.900;2022-12-05T17:12:58;7.20;75.70
39325;DHT22;25037;49.488;9.900;2022-12-05T17:15:25;7.20;75.70
39325;DHT22;25037;49.488;9.900;2022-12-05T17:17:51;7.20;75.90
39325;DHT22;25037;49.488;9.900;2022-12-05T17:20:16;7.20;75.80
39325;DHT22;25037;49.488;9.900;2022-12-05T17:22:42;7.30;75.70
39325;DHT22;25037;49.488;9.900;2022-12-05T17:25:31;7.30;75.60
39325;DHT22;25037;49.488;9.900;2022-12-05T17:28:00;7.30;75.50
39325;DHT22;25037;49.488;9.900;2022-12-05T17:30:26;7.30;75.50
39325;DHT22;25037;49.488;9.900;2022-12-05T17:32:52;7.30;75.40
39325;DHT22;25037;49.488;9.900;2022-12-05T17:35:19;7.30;75.40
39325;DHT22;25037;49.488;9.900;2022-12-05T17:37:45;7.30;75.40
39325;DHT22;25037;49.488;9.900;2022-12-05T17:40:11;7.30;75.50
39325;DHT22;25037;49.488;9.900;2022-12-05T17:42:38;7.20;75.50
39325;DHT22;25037;49.488;9.900;2022-12-05T17:45:06;7.20;75.60
39325;DHT22;25037;49.488;9.900;2022-12-05T17:47:33;7.20;75.70
39325;DHT22;25037;49.488;9.900;2022-12-05T17:50:00;7.20;75.70
39325;DHT22;25037;49.488;9.900;2022-12-05T17:52:27;7.20;75.70
39325;DHT22;25037;49.488;9.900;2022-12-05T17:54:52;7.20;75.80
39325;DHT22;25037;49.488;9.900;2022-12-05T17:57:18;7.20;75.80
39325;DHT22;25037;49.488;9.900;2022-12-05T17:59:43;7.10;75.90
39325;DHT22;25037;49.488;9.900;2022-12-05T18:02:10;7.10;75.90
39325;DHT22;25037;49.488;9.900;2022-12-05T18:04:36;7.10;75.90
39325;DHT22;25037;49.488;9.900;2022-12-05T18:07:02;7.10;76.00
39325;DHT22;25037;49.488;9.900;2022-12-05T18:09:28;7.20;76.00
39325;DHT22;25037;49.488;9.900;2022-12-05T18:11:53;7.20;76.10
39325;DHT22;25037;49.488;9.900;2022-12-05T18:14:20;7.20;76.10
39325;DHT22;25037;49.488;9.900;2022-12-05T18:16:47;7.20;76.20
39325;DHT22;25037;49.488;9.900;2022-12-05T18:19:13;7.20;76.20
39325;DHT22;25037;49.488;9.900;2022-12-05T18:21:38;7.20;76.20
39325;DHT22;25037;49.488;9.900;2022-12-05T18:24:04;7.20;76.20
39325;DHT22;25037;49.488;9.900;2022-12-05T18:26:30;7.20;76.20
39325;DHT22;25037;49.488;9.900;2022-12-05T18:28:55;7.20;76.10
39325;DHT22;25037;49.488;9.900;2022-12-05T18:31:23;7.10;76.10
39325;DHT22;25037;49.488;9.900;2022-12-05T18:33:49;7.10;76.10
39325;DHT22;25037;49.488;9.900;2022-12-05T18:36:18;7.00;76.10
39325;DHT22;25037;49.488;9.900;2022-12-05T18:38:54;7.10;76.20